sensor_id;sensor_type;location;lat;lon;timestamp;P1;P2;P0
24012;PMS7003;12220;50.194;18.948;2024-01-30T00:01:36;67;51;31
24012;PMS7003;12220;50.194;18.948;2024-01-30T00:03:38;56;43;27
24012;PMS7003;12220;50.194;18.948;2024-01-30T00:05:39;59;46;31
24012;PMS7003;12220;50.194;18.948;2024-01-30T00:07:40;55;42;25
24012;PMS7003;12220;50.194;18.948;2024-01-30T00:09:51;55;43;28
24012;PMS7003;12220;50.194;18.948;2024-01-30T00:11:53;62;46;28
24012;PMS7003;12220;50.194;18.948;2024-01-30T00:13:54;63;45;28
24012;PMS7003;12220;50.194;18.948;2024-01-30T00:15:59;60;47;31
24012;PMS7003;12220;50.194;18.948;2024-01-30T00:18:07;54;45;29
24012;PMS7003;12220;50.194;18.948;2024-01-30T00:20:08;63;47;29
24012;PMS7003;12220;50.194;18.948;2024-01-30T00:22:10;64;48;30
24012;PMS7003;12220;50.194;18.948;2024-01-30T00:24:12;64;47;27
24012;PMS7003;12220;50.194;18.948;2024-01-30T00:26:22;64;48;27
24012;PMS7003;12220;50.194;18.948;2024-01-30T00:28:23;56;44;27
24012;PMS7003;12220;50.194;18.948;2024-01-30T00:30:25;61;44;28
24012;PMS7003;12220;50.194;18.948;2024-01-30T00:32:26;59;46;29
24012;PMS7003;12220;50.194;18.948;2024-01-30T00:34:37;62;48;29
24012;PMS7003;12220;50.194;18.948;2024-01-30T00:36:38;61;45;28
24012;PMS7003;12220;50.194;18.948;2024-01-30T00:38:40;53;43;28
24012;PMS7003;12220;50.194;18.948;2024-01-30T00:40:41;59;45;28
24012;PMS7003;12220;50.194;18.948;2024-01-30T00:42:52;46;38;24
24012;PMS7003;12220;50.194;18.948;2024-01-30T00:44:54;55;41;25
24012;PMS7003;12220;50.194;18.948;2024-01-30T00:46:55;65;49;28
24012;PMS7003;12220;50.194;18.948;2024-01-30T00:48:56;55;41;26
24012;PMS7003;12220;50.194;18.948;2024-01-30T00:51:08;56;44;28
24012;PMS7003;12220;50.194;18.948;2024-01-30T00:53:09;53;41;27
24012;PMS7003;12220;50.194;18.948;2024-01-30T00:55:11;57;45;28
24012;PMS7003;12220;50.194;18.948;2024-01-30T00:57:14;65;46;29
24012;PMS7003;12220;50.194;18.948;2024-01-30T00:59:23;49;38;24
24012;PMS7003;12220;50.194;18.948;2024-01-30T01:01:24;56;43;26
24012;PMS7003;12220;50.194;18.948;2024-01-30T01:03:25;56;43;27
24012;PMS7003;12220;50.194;18.948;2024-01-30T01:05:27;52;41;25
24012;PMS7003;12220;50.194;18.948;2024-01-30T01:07:38;40;36;23
24012;PMS7003;12220;50.194;18.948;2024-01-30T01:09:43;49;41;25
24012;PMS7003;12220;50.194;18.948;2024-01-30T01:11:44;44;36;23
24012;PMS7003;12220;50.194;18.948;2024-01-30T01:13:45;44;36;22
24012;PMS7003;12220;50.194;18.948;2024-01-30T01:15:53;48;37;24
24012;PMS7003;12220;50.194;18.948;2024-01-30T01:17:55;49;36;23
24012;PMS7003;12220;50.194;18.948;2024-01-30T01:19:57;51;41;25
24012;PMS7003;12220;50.194;18.948;2024-01-30T01:21:58;46;38;24
24012;PMS7003;12220;50.194;18.948;2024-01-30T01:24:08;57;42;26
24012;PMS7003;12220;50.194;18.948;2024-01-30T01:26:10;47;39;26
24012;PMS7003;12220;50.194;18.948;2024-01-30T01:28:11;51;41;27
24012;PMS7003;12220;50.194;18.948;2024-01-30T01:30:13;56;42;25
24012;PMS7003;12220;50.194;18.948;2024-01-30T01:32:24;47;38;20
24012;PMS7003;12220;50.194;18.948;2024-01-30T01:34:25;55;43;26
24012;PMS7003;12220;50.194;18.948;2024-01-30T01:36:27;44;37;24
24012;PMS7003;12220;50.194;18.948;2024-01-30T01:38:28;56;42;28
24012;PMS7003;12220;50.194;18.948;2024-01-30T01:40:39;57;44;28
24012;PMS7003;12220;50.194;18.948;2024-01-30T01:42:44;56;42;26
24012;PMS7003;12220;50.194;18.948;2024-01-30T01:44:46;51;41;26
24012;PMS7003;12220;50.194;18.948;2024-01-30T01:46:47;49;37;25
24012;PMS7003;12220;50.194;18.948;2024-01-30T01:48:54;40;32;20
24012;PMS7003;12220;50.194;18.948;2024-01-30T01:50:56;62;45;28
24012;PMS7003;12220;50.194;18.948;2024-01-30T01:52:59;49;40;24
24012;PMS7003;12220;50.194;18.948;2024-01-30T01:55:00;50;38;23
24012;PMS7003;12220;50.194;18.948;2024-01-30T01:57:09;47;39;23
24012;PMS7003;12220;50.194;18.948;2024-01-30T01:59:11;42;37;24
24012;PMS7003;12220;50.194;18.948;2024-01-30T02:01:13;42;31;20
24012;PMS7003;12220;50.194;18.948;2024-01-30T02:03:15;44;34;19
24012;PMS7003;12220;50.194;18.948;2024-01-30T02:05:25;51;43;25
24012;PMS7003;12220;50.194;18.948;2024-01-30T02:07:30;45;36;23
24012;PMS7003;12220;50.194;18.948;2024-01-30T02:09:32;43;33;22
24012;PMS7003;12220;50.194;18.948;2024-01-30T02:11:33;37;32;22
24012;PMS7003;12220;50.194;18.948;2024-01-30T02:13:40;44;36;23
24012;PMS7003;12220;50.194;18.948;2024-01-30T02:15:42;46;34;22
24012;PMS7003;12220;50.194;18.948;2024-01-30T02:17:43;41;35;20
24012;PMS7003;12220;50.194;18.948;2024-01-30T02:19:45;41;32;20
24012;PMS7003;12220;50.194;18.948;2024-01-30T02:21:55;42;34;21
24012;PMS7003;12220;50.194;18.948;2024-01-30T02:23:56;44;35;22
24012;PMS7003;12220;50.194;18.948;2024-01-30T02:26:00;42;34;23
24012;PMS7003;12220;50.194;18.948;2024-01-30T02:28:02;36;29;21
24012;PMS7003;12220;50.194;18.948;2024-01-30T02:30:10;43;33;22
24012;PMS7003;12220;50.194;18.948;2024-01-30T02:32:13;37;30;19
24012;PMS7003;12220;50.194;18.948;2024-01-30T02:34:14;37;33;20
24012;PMS7003;12220;50.194;18.948;2024-01-30T02:36:15;41;28;20
24012;PMS7003;12220;50.194;18.948;2024-01-30T02:38:26;46;34;21
24012;PMS7003;12220;50.194;18.948;2024-01-30T02:40:27;34;27;17
24012;PMS7003;12220;50.194;18.948;2024-01-30T02:42:29;28;26;18
24012;PMS7003;12220;50.194;18.948;2024-01-30T02:44:30;27;25;18
24012;PMS7003;12220;50.194;18.948;2024-01-30T02:46:40;23;20;12
24012;PMS7003;12220;50.194;18.948;2024-01-30T02:48:42;28;24;16
24012;PMS7003;12220;50.194;18.948;2024-01-30T02:50:43;24;22;16
24012;PMS7003;12220;50.194;18.948;2024-01-30T02:52:46;32;24;17
24012;PMS7003;12220;50.194;18.948;2024-01-30T02:54:56;31;28;15
24012;PMS7003;12220;50.194;18.948;2024-01-30T02:56:57;24;24;15
24012;PMS7003;12220;50.194;18.948;2024-01-30T02:58:59;28;26;16
24012;PMS7003;12220;50.194;18.948;2024-01-30T03:01:00;28;27;18
24012;PMS7003;12220;50.194;18.948;2024-01-30T03:03:11;25;24;13
24012;PMS7003;12220;50.194;18.948;2024-01-30T03:05:12;32;30;18
24012;PMS7003;12220;50.194;18.948;2024-01-30T03:07:14;28;24;13
24012;PMS7003;12220;50.194;18.948;2024-01-30T03:09:18;31;27;16
24012;PMS7003;12220;50.194;18.948;2024-01-30T03:11:26;28;22;16
24012;PMS7003;12220;50.194;18.948;2024-01-30T03:13:27;30;24;14
24012;PMS7003;12220;50.194;18.948;2024-01-30T03:15:30;24;22;15
24012;PMS7003;12220;50.194;18.948;2024-01-30T03:17:31;33;28;19
24012;PMS7003;12220;50.194;18.948;2024-01-30T03:19:41;31;25;18
24012;PMS7003;12220;50.194;18.948;2024-01-30T03:21:43;32;30;18
24012;PMS7003;12220;50.194;18.948;2024-01-30T03:23:44;28;26;16
24012;PMS7003;12220;50.194;18.948;2024-01-30T03:25:45;30;23;15
24012;PMS7003;12220;50.194;18.948;2024-01-30T03:27:56;24;21;15
24012;PMS7003;12220;50.194;18.948;2024-01-30T03:29:58;25;23;16
24012;PMS7003;12220;50.194;18.948;2024-01-30T03:31:59;30;28;17
24012;PMS7003;12220;50.194;18.948;2024-01-30T03:34:01;29;26;18
24012;PMS7003;12220;50.194;18.948;2024-01-30T03:36:11;21;19;12
24012;PMS7003;12220;50.194;18.948;2024-01-30T03:38:13;29;26;17
24012;PMS7003;12220;50.194;18.948;2024-01-30T03:40:15;27;20;14
24012;PMS7003;12220;50.194;18.948;2024-01-30T03:42:16;28;25;17
24012;PMS7003;12220;50.194;18.948;2024-01-30T03:44:27;27;24;13
24012;PMS7003;12220;50.194;18.948;2024-01-30T03:46:29;29;25;15
24012;PMS7003;12220;50.194;18.948;2024-01-30T03:48:30;29;24;17
24012;PMS7003;12220;50.194;18.948;2024-01-30T03:50:32;34;26;17
24012;PMS7003;12220;50.194;18.948;2024-01-30T03:52:43;34;30;18
24012;PMS7003;12220;50.194;18.948;2024-01-30T03:54:44;26;25;17
24012;PMS7003;12220;50.194;18.948;2024-01-30T03:56:45;29;21;15
24012;PMS7003;12220;50.194;18.948;2024-01-30T03:58:47;39;30;20
24012;PMS7003;12220;50.194;18.948;2024-01-30T04:00:59;29;29;19
24012;PMS7003;12220;50.194;18.948;2024-01-30T04:03:00;28;27;18
24012;PMS7003;12220;50.194;18.948;2024-01-30T04:05:02;29;22;15
24012;PMS7003;12220;50.194;18.948;2024-01-30T04:07:04;34;31;18
24012;PMS7003;12220;50.194;18.948;2024-01-30T04:09:14;22;21;14
24012;PMS7003;12220;50.194;18.948;2024-01-30T04:11:18;28;25;18
24012;PMS7003;12220;50.194;18.948;2024-01-30T04:13:20;20;17;13
24012;PMS7003;12220;50.194;18.948;2024-01-30T04:15:22;27;23;14
24012;PMS7003;12220;50.194;18.948;2024-01-30T04:17:29;23;20;13
24012;PMS7003;12220;50.194;18.948;2024-01-30T04:19:31;18;18;12
24012;PMS7003;12220;50.194;18.948;2024-01-30T04:21:32;17;12;9
24012;PMS7003;12220;50.194;18.948;2024-01-30T04:23:34;25;20;10
24012;PMS7003;12220;50.194;18.948;2024-01-30T04:25:44;25;22;15
24012;PMS7003;12220;50.194;18.948;2024-01-30T04:27:46;24;19;12
24012;PMS7003;12220;50.194;18.948;2024-01-30T04:29:47;21;19;12
24012;PMS7003;12220;50.194;18.948;2024-01-30T04:31:49;22;19;14
24012;PMS7003;12220;50.194;18.948;2024-01-30T04:33:59;16;15;9
24012;PMS7003;12220;50.194;18.948;2024-01-30T04:36:01;20;18;10
24012;PMS7003;12220;50.194;18.948;2024-01-30T04:38:04;23;18;13
24012;PMS7003;12220;50.194;18.948;2024-01-30T04:40:06;23;20;11
24012;PMS7003;12220;50.194;18.948;2024-01-30T04:42:16;26;20;12
24012;PMS7003;12220;50.194;18.948;2024-01-30T04:44:18;27;23;13
24012;PMS7003;12220;50.194;18.948;2024-01-30T04:46:20;28;25;16
24012;PMS7003;12220;50.194;18.948;2024-01-30T04:48:21;21;17;11
24012;PMS7003;12220;50.194;18.948;2024-01-30T04:50:31;32;24;14
24012;PMS7003;12220;50.194;18.948;2024-01-30T04:52:33;39;27;15
24012;PMS7003;12220;50.194;18.948;2024-01-30T04:54:35;31;28;16
24012;PMS7003;12220;50.194;18.948;2024-01-30T04:56:36;28;23;12
24012;PMS7003;12220;50.194;18.948;2024-01-30T04:58:47;29;24;16
24012;PMS7003;12220;50.194;18.948;2024-01-30T05:00:48;28;19;15
24012;PMS7003;12220;50.194;18.948;2024-01-30T05:02:52;25;22;15
24012;PMS7003;12220;50.194;18.948;2024-01-30T05:04:53;25;22;12
24012;PMS7003;12220;50.194;18.948;2024-01-30T05:07:02;27;22;13
24012;PMS7003;12220;50.194;18.948;2024-01-30T05:09:03;22;19;12
24012;PMS7003;12220;50.194;18.948;2024-01-30T05:11:09;26;20;11
24012;PMS7003;12220;50.194;18.948;2024-01-30T05:13:11;29;20;13
24012;PMS7003;12220;50.194;18.948;2024-01-30T05:15:17;27;21;13
24012;PMS7003;12220;50.194;18.948;2024-01-30T05:17:18;30;25;15
24012;PMS7003;12220;50.194;18.948;2024-01-30T05:19:20;21;20;13
24012;PMS7003;12220;50.194;18.948;2024-01-30T05:21:23;18;17;11
24012;PMS7003;12220;50.194;18.948;2024-01-30T05:23:32;21;18;13
24012;PMS7003;12220;50.194;18.948;2024-01-30T05:25:33;17;16;11
24012;PMS7003;12220;50.194;18.948;2024-01-30T05:27:35;19;16;11
24012;PMS7003;12220;50.194;18.948;2024-01-30T05:29:37;12;12;8
24012;PMS7003;12220;50.194;18.948;2024-01-30T05:31:47;22;21;14
24012;PMS7003;12220;50.194;18.948;2024-01-30T05:33:49;16;16;11
24012;PMS7003;12220;50.194;18.948;2024-01-30T05:35:50;20;18;11
24012;PMS7003;12220;50.194;18.948;2024-01-30T05:37:55;31;20;12
24012;PMS7003;12220;50.194;18.948;2024-01-30T05:40:02;13;10;10
24012;PMS7003;12220;50.194;18.948;2024-01-30T05:42:05;19;13;10
24012;PMS7003;12220;50.194;18.948;2024-01-30T05:44:07;23;19;14
24012;PMS7003;12220;50.194;18.948;2024-01-30T05:46:08;29;27;16
24012;PMS7003;12220;50.194;18.948;2024-01-30T05:48:17;22;18;10
24012;PMS7003;12220;50.194;18.948;2024-01-30T05:50:19;23;23;14
24012;PMS7003;12220;50.194;18.948;2024-01-30T05:52:23;21;15;10
24012;PMS7003;12220;50.194;18.948;2024-01-30T05:54:25;17;12;10
24012;PMS7003;12220;50.194;18.948;2024-01-30T05:56:33;18;15;10
24012;PMS7003;12220;50.194;18.948;2024-01-30T05:58:34;13;12;6
24012;PMS7003;12220;50.194;18.948;2024-01-30T06:00:37;13;12;8
24012;PMS7003;12220;50.194;18.948;2024-01-30T06:02:39;17;14;11
24012;PMS7003;12220;50.194;18.948;2024-01-30T06:04:48;15;15;10
24012;PMS7003;12220;50.194;18.948;2024-01-30T06:06:49;9;9;6
24012;PMS7003;12220;50.194;18.948;2024-01-30T06:08:51;19;16;11
24012;PMS7003;12220;50.194;18.948;2024-01-30T06:10:55;15;12;8
24012;PMS7003;12220;50.194;18.948;2024-01-30T06:13:03;16;13;9
24012;PMS7003;12220;50.194;18.948;2024-01-30T06:15:05;15;14;9
24012;PMS7003;12220;50.194;18.948;2024-01-30T06:17:07;17;16;11
24012;PMS7003;12220;50.194;18.948;2024-01-30T06:19:09;17;16;11
24012;PMS7003;12220;50.194;18.948;2024-01-30T06:21:18;13;13;8
24012;PMS7003;12220;50.194;18.948;2024-01-30T06:23:19;13;12;7
24012;PMS7003;12220;50.194;18.948;2024-01-30T06:25:21;13;12;7
24012;PMS7003;12220;50.194;18.948;2024-01-30T06:27:22;16;11;8
24012;PMS7003;12220;50.194;18.948;2024-01-30T06:29:33;17;13;10
24012;PMS7003;12220;50.194;18.948;2024-01-30T06:33:43;10;10;8
24012;PMS7003;12220;50.194;18.948;2024-01-30T06:35:44;23;14;8
24012;PMS7003;12220;50.194;18.948;2024-01-30T06:37:48;13;12;7
24012;PMS7003;12220;50.194;18.948;2024-01-30T06:39:50;18;14;8
24012;PMS7003;12220;50.194;18.948;2024-01-30T06:41:52;15;15;10
24012;PMS7003;12220;50.194;18.948;2024-01-30T06:43:54;8;8;7
24012;PMS7003;12220;50.194;18.948;2024-01-30T06:46:03;14;11;8
24012;PMS7003;12220;50.194;18.948;2024-01-30T06:48:05;20;16;10
24012;PMS7003;12220;50.194;18.948;2024-01-30T06:50:08;17;16;10
24012;PMS7003;12220;50.194;18.948;2024-01-30T06:52:10;15;13;10
24012;PMS7003;12220;50.194;18.948;2024-01-30T06:54:18;18;17;9
24012;PMS7003;12220;50.194;18.948;2024-01-30T06:56:20;22;20;13
24012;PMS7003;12220;50.194;18.948;2024-01-30T06:58:21;25;16;10
24012;PMS7003;12220;50.194;18.948;2024-01-30T07:00:23;21;18;12
24012;PMS7003;12220;50.194;18.948;2024-01-30T07:02:34;21;16;11
24012;PMS7003;12220;50.194;18.948;2024-01-30T07:04:35;26;21;12
24012;PMS7003;12220;50.194;18.948;2024-01-30T07:06:38;24;22;15
24012;PMS7003;12220;50.194;18.948;2024-01-30T07:08:39;16;16;11
24012;PMS7003;12220;50.194;18.948;2024-01-30T07:10:49;21;19;12
24012;PMS7003;12220;50.194;18.948;2024-01-30T07:12:50;28;23;14
24012;PMS7003;12220;50.194;18.948;2024-01-30T07:14:52;30;25;14
24012;PMS7003;12220;50.194;18.948;2024-01-30T07:16:54;21;19;12
24012;PMS7003;12220;50.194;18.948;2024-01-30T07:19:05;37;28;17
24012;PMS7003;12220;50.194;18.948;2024-01-30T07:21:06;31;26;18
24012;PMS7003;12220;50.194;18.948;2024-01-30T07:23:11;26;23;14
24012;PMS7003;12220;50.194;18.948;2024-01-30T07:25:16;29;23;16
24012;PMS7003;12220;50.194;18.948;2024-01-30T07:27:22;43;36;22
24012;PMS7003;12220;50.194;18.948;2024-01-30T07:29:24;48;40;24
24012;PMS7003;12220;50.194;18.948;2024-01-30T07:31:26;49;36;23
24012;PMS7003;12220;50.194;18.948;2024-01-30T07:33:27;31;29;19
24012;PMS7003;12220;50.194;18.948;2024-01-30T07:35:35;25;22;16
24012;PMS7003;12220;50.194;18.948;2024-01-30T07:37:37;23;22;16
24012;PMS7003;12220;50.194;18.948;2024-01-30T07:39:39;32;28;16
24012;PMS7003;12220;50.194;18.948;2024-01-30T07:41:40;24;20;15
24012;PMS7003;12220;50.194;18.948;2024-01-30T07:43:51;33;23;16
24012;PMS7003;12220;50.194;18.948;2024-01-30T07:45:54;21;18;13
24012;PMS7003;12220;50.194;18.948;2024-01-30T07:47:56;27;21;16
24012;PMS7003;12220;50.194;18.948;2024-01-30T07:49:58;17;15;14
24012;PMS7003;12220;50.194;18.948;2024-01-30T07:52:06;24;22;15
24012;PMS7003;12220;50.194;18.948;2024-01-30T07:54:11;32;24;16
24012;PMS7003;12220;50.194;18.948;2024-01-30T07:56:12;27;21;13
24012;PMS7003;12220;50.194;18.948;2024-01-30T07:58:14;20;20;16
24012;PMS7003;12220;50.194;18.948;2024-01-30T08:00:21;27;26;16
24012;PMS7003;12220;50.194;18.948;2024-01-30T08:02:23;23;22;16
24012;PMS7003;12220;50.194;18.948;2024-01-30T08:04:24;31;26;15
24012;PMS7003;12220;50.194;18.948;2024-01-30T08:06:25;29;26;15
24012;PMS7003;12220;50.194;18.948;2024-01-30T08:08:36;28;23;12
24012;PMS7003;12220;50.194;18.948;2024-01-30T08:10:43;24;21;14
24012;PMS7003;12220;50.194;18.948;2024-01-30T08:12:44;22;18;11
24012;PMS7003;12220;50.194;18.948;2024-01-30T08:14:46;31;25;14
24012;PMS7003;12220;50.194;18.948;2024-01-30T08:16:52;21;21;15
24012;PMS7003;12220;50.194;18.948;2024-01-30T08:18:53;20;18;13
24012;PMS7003;12220;50.194;18.948;2024-01-30T08:20:58;17;16;10
24012;PMS7003;12220;50.194;18.948;2024-01-30T08:22:59;19;17;12
24012;PMS7003;12220;50.194;18.948;2024-01-30T08:25:07;22;21;13
24012;PMS7003;12220;50.194;18.948;2024-01-30T08:27:10;22;19;13
24012;PMS7003;12220;50.194;18.948;2024-01-30T08:29:17;22;17;13
24012;PMS7003;12220;50.194;18.948;2024-01-30T08:31:19;21;19;12
24012;PMS7003;12220;50.194;18.948;2024-01-30T08:33:22;22;19;12
24012;PMS7003;12220;50.194;18.948;2024-01-30T08:35:23;29;20;14
24012;PMS7003;12220;50.194;18.948;2024-01-30T08:37:25;25;23;15
24012;PMS7003;12220;50.194;18.948;2024-01-30T08:39:26;31;21;12
24012;PMS7003;12220;50.194;18.948;2024-01-30T08:41:37;24;18;10
24012;PMS7003;12220;50.194;18.948;2024-01-30T08:43:38;22;21;14
24012;PMS7003;12220;50.194;18.948;2024-01-30T08:45:40;27;22;12
24012;PMS7003;12220;50.194;18.948;2024-01-30T08:47:43;34;24;15
24012;PMS7003;12220;50.194;18.948;2024-01-30T08:49:52;15;15;11
24012;PMS7003;12220;50.194;18.948;2024-01-30T08:51:54;18;17;9
24012;PMS7003;12220;50.194;18.948;2024-01-30T08:53:55;22;19;11
24012;PMS7003;12220;50.194;18.948;2024-01-30T08:55:57;17;15;12
24012;PMS7003;12220;50.194;18.948;2024-01-30T08:58:07;28;22;14
24012;PMS7003;12220;50.194;18.948;2024-01-30T09:00:09;18;18;11
24012;PMS7003;12220;50.194;18.948;2024-01-30T09:02:13;25;20;13
24012;PMS7003;12220;50.194;18.948;2024-01-30T09:04:18;27;21;14
24012;PMS7003;12220;50.194;18.948;2024-01-30T09:06:26;21;18;12
24012;PMS7003;12220;50.194;18.948;2024-01-30T09:08:29;29;24;15
24012;PMS7003;12220;50.194;18.948;2024-01-30T09:10:31;16;16;13
24012;PMS7003;12220;50.194;18.948;2024-01-30T09:12:32;19;19;13
24012;PMS7003;12220;50.194;18.948;2024-01-30T09:14:38;25;20;15
24012;PMS7003;12220;50.194;18.948;2024-01-30T09:16:41;22;17;12
24012;PMS7003;12220;50.194;18.948;2024-01-30T09:18:43;20;20;14
24012;PMS7003;12220;50.194;18.948;2024-01-30T09:20:44;23;21;14
24012;PMS7003;12220;50.194;18.948;2024-01-30T09:22:53;28;22;15
24012;PMS7003;12220;50.194;18.948;2024-01-30T09:24:54;23;19;12
24012;PMS7003;12220;50.194;18.948;2024-01-30T09:26:55;20;18;14
24012;PMS7003;12220;50.194;18.948;2024-01-30T09:28:57;20;17;11
24012;PMS7003;12220;50.194;18.948;2024-01-30T09:31:11;24;21;15
24012;PMS7003;12220;50.194;18.948;2024-01-30T09:33:13;22;18;13
24012;PMS7003;12220;50.194;18.948;2024-01-30T09:35:17;19;18;11
24012;PMS7003;12220;50.194;18.948;2024-01-30T09:37:18;19;18;13
24012;PMS7003;12220;50.194;18.948;2024-01-30T09:39:23;21;17;12
24012;PMS7003;12220;50.194;18.948;2024-01-30T09:41:24;19;18;11
24012;PMS7003;12220;50.194;18.948;2024-01-30T09:43:28;20;19;13
24012;PMS7003;12220;50.194;18.948;2024-01-30T09:45:35;25;23;15
24012;PMS7003;12220;50.194;18.948;2024-01-30T09:47:41;25;18;12
24012;PMS7003;12220;50.194;18.948;2024-01-30T09:49:44;26;23;16
24012;PMS7003;12220;50.194;18.948;2024-01-30T09:51:47;24;20;14
24012;PMS7003;12220;50.194;18.948;2024-01-30T09:53:49;17;16;12
24012;PMS7003;12220;50.194;18.948;2024-01-30T09:55:53;24;20;12
24012;PMS7003;12220;50.194;18.948;2024-01-30T09:57:54;20;20;13
24012;PMS7003;12220;50.194;18.948;2024-01-30T09:59:56;21;16;13
24012;PMS7003;12220;50.194;18.948;2024-01-30T10:01:58;21;19;13
24012;PMS7003;12220;50.194;18.948;2024-01-30T10:04:08;27;23;15
24012;PMS7003;12220;50.194;18.948;2024-01-30T10:06:10;21;18;12
24012;PMS7003;12220;50.194;18.948;2024-01-30T10:08:12;20;19;13
24012;PMS7003;12220;50.194;18.948;2024-01-30T10:10:13;19;16;11
24012;PMS7003;12220;50.194;18.948;2024-01-30T10:12:23;29;22;15
24012;PMS7003;12220;50.194;18.948;2024-01-30T10:14:27;19;15;10
24012;PMS7003;12220;50.194;18.948;2024-01-30T10:16:28;17;13;11
24012;PMS7003;12220;50.194;18.948;2024-01-30T10:18:30;20;20;12
24012;PMS7003;12220;50.194;18.948;2024-01-30T10:20:38;23;16;10
24012;PMS7003;12220;50.194;18.948;2024-01-30T10:22:40;19;17;12
24012;PMS7003;12220;50.194;18.948;2024-01-30T10:24:49;17;16;10
24012;PMS7003;12220;50.194;18.948;2024-01-30T10:26:51;24;18;11
24012;PMS7003;12220;50.194;18.948;2024-01-30T10:28:54;21;17;11
24012;PMS7003;12220;50.194;18.948;2024-01-30T10:33:06;16;14;9
24012;PMS7003;12220;50.194;18.948;2024-01-30T10:35:08;19;13;8
24012;PMS7003;12220;50.194;18.948;2024-01-30T10:37:11;21;17;12
24012;PMS7003;12220;50.194;18.948;2024-01-30T10:39:19;17;14;11
24012;PMS7003;12220;50.194;18.948;2024-01-30T10:41:24;12;12;6
24012;PMS7003;12220;50.194;18.948;2024-01-30T10:43:47;22;20;14
24012;PMS7003;12220;50.194;18.948;2024-01-30T10:45:41;16;15;11
24012;PMS7003;12220;50.194;18.948;2024-01-30T10:47:50;20;14;10
24012;PMS7003;12220;50.194;18.948;2024-01-30T10:49:54;15;12;10
24012;PMS7003;12220;50.194;18.948;2024-01-30T10:51:56;20;18;14
24012;PMS7003;12220;50.194;18.948;2024-01-30T10:53:59;14;14;10
24012;PMS7003;12220;50.194;18.948;2024-01-30T10:56:04;26;21;13
24012;PMS7003;12220;50.194;18.948;2024-01-30T10:58:08;16;16;10
24012;PMS7003;12220;50.194;18.948;2024-01-30T11:00:13;20;15;12
24012;PMS7003;12220;50.194;18.948;2024-01-30T11:02:16;19;17;12
24012;PMS7003;12220;50.194;18.948;2024-01-30T11:04:19;14;12;11
24012;PMS7003;12220;50.194;18.948;2024-01-30T11:06:24;17;16;11
24012;PMS7003;12220;50.194;18.948;2024-01-30T11:08:26;16;15;9
24012;PMS7003;12220;50.194;18.948;2024-01-30T11:10:31;10;10;7
24012;PMS7003;12220;50.194;18.948;2024-01-30T11:12:38;19;16;10
24012;PMS7003;12220;50.194;18.948;2024-01-30T11:17:17;17;15;11
24012;PMS7003;12220;50.194;18.948;2024-01-30T11:21:27;19;18;13
24012;PMS7003;12220;50.194;18.948;2024-01-30T11:23:28;21;16;10
24012;PMS7003;12220;50.194;18.948;2024-01-30T11:25:32;20;18;11
24012;PMS7003;12220;50.194;18.948;2024-01-30T11:27:34;21;17;13
24012;PMS7003;12220;50.194;18.948;2024-01-30T11:29:35;17;17;10
24012;PMS7003;12220;50.194;18.948;2024-01-30T11:31:37;18;15;12
24012;PMS7003;12220;50.194;18.948;2024-01-30T11:33:47;16;14;11
24012;PMS7003;12220;50.194;18.948;2024-01-30T11:35:54;20;18;13
24012;PMS7003;12220;50.194;18.948;2024-01-30T11:37:55;17;15;12
24012;PMS7003;12220;50.194;18.948;2024-01-30T11:39:59;18;18;12
24012;PMS7003;12220;50.194;18.948;2024-01-30T11:42:02;23;21;13
24012;PMS7003;12220;50.194;18.948;2024-01-30T11:44:06;22;22;15
24012;PMS7003;12220;50.194;18.948;2024-01-30T11:46:09;30;26;15
24012;PMS7003;12220;50.194;18.948;2024-01-30T11:48:12;20;17;13
24012;PMS7003;12220;50.194;18.948;2024-01-30T11:50:17;30;21;14
24012;PMS7003;12220;50.194;18.948;2024-01-30T11:52:19;18;17;13
24012;PMS7003;12220;50.194;18.948;2024-01-30T11:54:20;20;18;13
24012;PMS7003;12220;50.194;18.948;2024-01-30T11:56:23;22;18;14
24012;PMS7003;12220;50.194;18.948;2024-01-30T11:58:32;19;19;11
24012;PMS7003;12220;50.194;18.948;2024-01-30T12:00:34;21;20;14
24012;PMS7003;12220;50.194;18.948;2024-01-30T12:02:36;24;21;17
24012;PMS7003;12220;50.194;18.948;2024-01-30T12:04:38;20;19;13
24012;PMS7003;12220;50.194;18.948;2024-01-30T12:06:50;22;20;16
24012;PMS7003;12220;50.194;18.948;2024-01-30T12:08:58;14;13;12
24012;PMS7003;12220;50.194;18.948;2024-01-30T12:11:02;19;18;13
24012;PMS7003;12220;50.194;18.948;2024-01-30T12:13:06;24;17;12
24012;PMS7003;12220;50.194;18.948;2024-01-30T12:15:07;20;19;14
24012;PMS7003;12220;50.194;18.948;2024-01-30T12:17:09;20;20;13
24012;PMS7003;12220;50.194;18.948;2024-01-30T12:19:20;19;19;12
24012;PMS7003;12220;50.194;18.948;2024-01-30T12:21:25;26;24;18
24012;PMS7003;12220;50.194;18.948;2024-01-30T12:23:27;23;21;14
24012;PMS7003;12220;50.194;18.948;2024-01-30T12:25:29;25;21;13
24012;PMS7003;12220;50.194;18.948;2024-01-30T12:27:30;23;17;12
24012;PMS7003;12220;50.194;18.948;2024-01-30T12:29:32;20;18;11
24012;PMS7003;12220;50.194;18.948;2024-01-30T12:31:37;23;19;12
24012;PMS7003;12220;50.194;18.948;2024-01-30T12:33:38;18;18;13
24012;PMS7003;12220;50.194;18.948;2024-01-30T12:35:39;12;12;10
24012;PMS7003;12220;50.194;18.948;2024-01-30T12:37:46;25;19;14
24012;PMS7003;12220;50.194;18.948;2024-01-30T12:39:52;21;19;14
24012;PMS7003;12220;50.194;18.948;2024-01-30T12:41:56;21;21;14
24012;PMS7003;12220;50.194;18.948;2024-01-30T12:43:57;16;15;12
24012;PMS7003;12220;50.194;18.948;2024-01-30T12:45:59;13;12;10
24012;PMS7003;12220;50.194;18.948;2024-01-30T12:48:07;15;12;8
24012;PMS7003;12220;50.194;18.948;2024-01-30T12:50:09;16;16;12
24012;PMS7003;12220;50.194;18.948;2024-01-30T12:52:16;21;15;12
24012;PMS7003;12220;50.194;18.948;2024-01-30T12:54:17;19;18;13
24012;PMS7003;12220;50.194;18.948;2024-01-30T12:56:22;19;16;13
24012;PMS7003;12220;50.194;18.948;2024-01-30T12:58:23;18;17;12
24012;PMS7003;12220;50.194;18.948;2024-01-30T13:00:25;20;19;14
24012;PMS7003;12220;50.194;18.948;2024-01-30T13:02:26;25;23;15
24012;PMS7003;12220;50.194;18.948;2024-01-30T13:04:37;14;14;13
24012;PMS7003;12220;50.194;18.948;2024-01-30T13:06:38;20;16;12
24012;PMS7003;12220;50.194;18.948;2024-01-30T13:08:40;21;19;14
24012;PMS7003;12220;50.194;18.948;2024-01-30T13:10:41;25;18;14
24012;PMS7003;12220;50.194;18.948;2024-01-30T13:12:52;26;20;13